LTBI

Eskişehir Air Base Airport

Turkey
TAF LTBI 200740Z 2009/2018 12008KT 9999 SCT040 SCT100
Issued Valid From Valid To
Jan-20 @ 07:40 UTC
(3 hours ago)
Jan-20 @ 09:00 UTC
(2 hours ago)
Jan-20 @ 18:00 UTC
(in 7 hours)
Jan-20 @ 09:00 to Jan-20 @ 18:00
TAF LTBI 200740Z 2009/2018 12008KT 9999 SCT040 SCT100
Wind Visibility Clouds
120° at 8 knots 10,000+ meters
  • Scattered at 4,000' AGL
  • Scattered at 10,000' AGL
TAF LTBI 200740Z 2009/2018 12008KT 9999 SCT040 SCT100
Issued Jan-20 @ 07:40 UTC
(3 hours ago)
Valid From Jan-20 @ 09:00 UTC
(2 hours ago)
Valid To Jan-20 @ 18:00 UTC
(in 7 hours)
Jan-20 @ 09:00 - Jan-20 @ 18:00
Wind Visibility
120° at 8 knots 10,000+ meters
Clouds
  • Scattered at 4,000' AGL
  • Scattered at 10,000' AGL